Time;durP1;ratioP1;P1;durP2;ratioP2;P2;SDS_P1;SDS_P2;PMS_P1;PMS_P2;Temp;Humidity;BMP_temperature;BMP_pressure;BME280_temperature;BME280_humidity;BME280_pressure;Samples;Min_cycle;Max_cycle;Signal;HPM_P1;HPM_P2
2022/07/24 00:01:11;;;;;;;21.23;19.92;;;;;;;-141.02;100.00;55844.97;5136308;27;20224;-87
2022/07/24 00:03:38;;;;;;;21.17;19.88;;;;;;;-141.02;100.00;55844.97;5136427;27;20223;-86
2022/07/24 00:06:05;;;;;;;20.70;19.40;;;;;;;-141.02;100.00;55844.97;5136562;27;20200;-86
2022/07/24 00:08:32;;;;;;;21.40;20.10;;;;;;;-141.02;100.00;55844.97;5136300;27;20276;-88
2022/07/24 00:10:59;;;;;;;20.88;19.58;;;;;;;-141.02;100.00;55844.97;5136364;27;20245;-88
2022/07/24 00:13:26;;;;;;;21.08;19.77;;;;;;;-141.02;100.00;55844.97;5136155;27;20283;-88
2022/07/24 00:15:53;;;;;;;20.77;19.48;;;;;;;-141.02;100.00;55844.97;5136693;27;20772;-89
2022/07/24 00:18:21;;;;;;;20.90;19.60;;;;;;;-141.02;100.00;55844.97;5137117;27;20193;-88
2022/07/24 00:20:48;;;;;;;20.63;19.35;;;;;;;-141.02;100.00;55844.97;5139441;27;20197;-84
2022/07/24 00:23:16;;;;;;;20.98;19.67;;;;;;;-141.02;100.00;55844.97;5137674;27;20192;-87
2022/07/24 00:25:43;;;;;;;20.35;19.08;;;;;;;-141.02;100.00;55844.97;5137483;27;20225;-88
2022/07/24 00:28:10;;;;;;;20.52;19.23;;;;;;;-141.02;100.00;55844.97;5136368;27;20279;-89
2022/07/24 00:30:37;;;;;;;20.67;19.38;;;;;;;-141.02;100.00;55844.97;5135845;27;20660;-88
2022/07/24 00:33:04;;;;;;;20.95;19.65;;;;;;;-141.02;100.00;55844.97;5135871;27;20658;-85
2022/07/24 00:35:33;;;;;;;21.40;20.10;;;;;;;-141.02;100.00;55844.97;5136347;27;20646;-88
2022/07/24 00:38:00;;;;;;;20.70;19.40;;;;;;;-141.02;100.00;55844.97;5137316;27;20193;-85
2022/07/24 00:40:27;;;;;;;20.80;19.50;;;;;;;-141.02;100.00;55844.97;5139184;27;20225;-88
2022/07/24 00:42:55;;;;;;;20.77;19.48;;;;;;;-141.02;100.00;55844.97;5138245;27;20240;-91
2022/07/24 00:45:22;;;;;;;20.70;19.40;;;;;;;-141.02;100.00;55844.97;5137761;27;20236;-88
2022/07/24 00:47:49;;;;;;;20.67;19.38;;;;;;;-141.02;100.00;55844.97;5136302;27;20193;-87
2022/07/24 00:50:16;;;;;;;21.02;19.73;;;;;;;-141.02;100.00;55844.97;5135188;27;20730;-87
2022/07/24 00:52:45;;;;;;;20.92;19.63;;;;;;;-141.02;100.00;55844.97;5136816;27;20630;-89
2022/07/24 00:55:12;;;;;;;21.10;19.80;;;;;;;-141.02;100.00;55844.97;5137999;27;20263;-89
2022/07/24 00:57:43;;;;;;;21.23;19.92;;;;;;;-141.02;100.00;55844.97;5139031;27;20279;-86
2022/07/24 01:00:12;;;;;;;20.80;19.50;;;;;;;-141.02;100.00;55844.97;5140382;27;20187;-86
2022/07/24 01:02:41;;;;;;;21.10;19.80;;;;;;;-141.02;100.00;55844.97;5138632;27;20196;-91
2022/07/24 01:05:09;;;;;;;20.67;19.48;;;;;;;-141.02;100.00;55844.97;5137684;27;20224;-86
2022/07/24 01:07:37;;;;;;;21.30;20.00;;;;;;;-141.02;100.00;55844.97;5137338;27;20246;-88
2022/07/24 01:10:06;;;;;;;21.50;20.20;;;;;;;-141.02;100.00;55844.97;5139503;27;20226;-85
2022/07/24 01:12:35;;;;;;;21.50;20.20;;;;;;;-141.02;100.00;55844.97;5136600;27;20197;-88
2022/07/24 01:15:03;;;;;;;21.02;19.73;;;;;;;-141.02;100.00;55844.97;5136343;27;20224;-88
2022/07/24 01:17:31;;;;;;;21.25;19.95;;;;;;;-141.02;100.00;55844.97;5136845;27;20196;-86
2022/07/24 01:19:58;;;;;;;20.48;19.27;;;;;;;-141.02;100.00;55844.97;5135222;27;20214;-91
2022/07/24 01:22:28;;;;;;;20.73;19.42;;;;;;;-141.02;100.00;55844.97;5135304;27;20639;-88
2022/07/24 01:24:55;;;;;;;21.20;19.90;;;;;;;-141.02;100.00;55844.97;5134754;27;20678;-88
2022/07/24 01:27:23;;;;;;;21.10;19.80;;;;;;;-141.02;100.00;55844.97;5134959;27;20275;-87
2022/07/24 01:29:51;;;;;;;21.42;20.13;;;;;;;-141.02;100.00;55844.97;5134610;27;20228;-89
2022/07/24 01:32:18;;;;;;;21.27;19.98;;;;;;;-141.02;100.00;55844.97;5134941;27;20237;-86
2022/07/24 01:34:45;;;;;;;21.08;19.77;;;;;;;-141.02;100.00;55844.97;5135387;27;20280;-87
2022/07/24 01:37:12;;;;;;;20.42;19.13;;;;;;;-141.02;100.00;55844.97;5134864;27;20231;-87
2022/07/24 01:39:40;;;;;;;20.77;19.48;;;;;;;-141.02;100.00;55844.97;5135248;27;20255;-88
2022/07/24 01:42:08;;;;;;;21.17;19.88;;;;;;;-141.02;100.00;55844.97;5134832;27;20651;-88
2022/07/24 01:44:35;;;;;;;20.52;19.30;;;;;;;-141.02;100.00;55844.97;5134295;27;20651;-88
2022/07/24 01:47:02;;;;;;;20.75;19.45;;;;;;;-141.02;100.00;55844.97;5134247;27;20292;-87
2022/07/24 01:49:29;;;;;;;20.45;19.25;;;;;;;-141.02;100.00;55844.97;5134839;27;20377;-88
2022/07/24 01:51:56;;;;;;;21.05;19.75;;;;;;;-141.02;100.00;55844.97;5134504;27;20224;-87
2022/07/24 01:54:23;;;;;;;20.90;19.60;;;;;;;-141.02;100.00;55844.97;5134466;27;20192;-88
2022/07/24 01:56:51;;;;;;;20.60;19.40;;;;;;;-141.02;100.00;55844.97;5134337;27;20690;-88
2022/07/24 01:59:18;;;;;;;20.08;18.88;;;;;;;-141.02;100.00;55844.97;5134205;27;20259;-87
2022/07/24 02:01:45;;;;;;;20.20;19.00;;;;;;;-141.02;100.00;55844.97;5133979;27;20196;-87
2022/07/24 02:04:12;;;;;;;20.63;19.33;;;;;;;-141.02;100.00;55844.97;5134468;27;20279;-88
2022/07/24 02:06:39;;;;;;;20.77;19.55;;;;;;;-141.02;100.00;55844.97;5134822;27;20193;-88
2022/07/24 02:09:06;;;;;;;20.30;19.10;;;;;;;-141.02;100.00;55844.97;5133821;27;20224;-88
2022/07/24 02:11:33;;;;;;;20.30;19.10;;;;;;;-141.02;100.00;55844.97;5133888;27;20189;-89
2022/07/24 02:14:02;;;;;;;20.20;19.00;;;;;;;-141.02;100.00;55844.97;5133864;27;20192;-89
2022/07/24 02:16:29;;;;;;;20.20;19.00;;;;;;;-141.02;100.00;55844.97;5133791;27;20263;-89
2022/07/24 02:18:56;;;;;;;20.25;19.05;;;;;;;-141.02;100.00;55844.97;5134002;27;20731;-88
2022/07/24 02:21:23;;;;;;;20.08;18.88;;;;;;;-141.02;100.00;55844.97;5134008;27;20196;-85
2022/07/24 02:23:50;;;;;;;20.40;19.20;;;;;;;-141.02;100.00;55844.97;5134151;27;20196;-90
2022/07/24 02:26:17;;;;;;;19.58;18.48;;;;;;;-141.02;100.00;55844.97;5133581;27;20253;-89
2022/07/24 02:28:44;;;;;;;19.63;18.52;;;;;;;-141.02;100.00;55844.97;5133899;27;20228;-89
2022/07/24 02:31:13;;;;;;;19.77;18.67;;;;;;;-141.02;100.00;55844.97;5134042;27;20276;-85
2022/07/24 02:33:40;;;;;;;20.67;19.48;;;;;;;-141.02;100.00;55844.97;5140400;27;20192;-91
2022/07/24 02:36:08;;;;;;;19.95;18.85;;;;;;;-141.02;100.00;55844.97;5136907;27;20225;-87
2022/07/24 02:38:35;;;;;;;19.15;18.05;;;;;;;-141.02;100.00;55844.97;5135052;27;20299;-87
2022/07/24 02:41:02;;;;;;;19.08;17.98;;;;;;;-141.02;100.00;55844.97;5140536;27;20228;-91
2022/07/24 02:43:30;;;;;;;19.45;18.35;;;;;;;-141.02;100.00;55844.97;5148106;27;20222;-90
2022/07/24 02:45:58;;;;;;;19.33;18.23;;;;;;;-141.02;100.00;55844.97;5151139;27;20192;-88
2022/07/24 02:48:26;;;;;;;19.88;18.77;;;;;;;-141.02;100.00;55844.97;5146828;27;20221;-83
2022/07/24 02:50:55;;;;;;;20.50;19.30;;;;;;;-141.02;100.00;55844.97;5146527;27;20231;-87
2022/07/24 02:53:29;;;;;;;20.20;19.00;;;;;;;-141.02;100.00;55844.97;5154966;27;20619;-88
2022/07/24 02:55:59;;;;;;;19.98;18.77;;;;;;;-141.02;100.00;55844.97;5152845;27;20245;-91
2022/07/24 02:58:27;;;;;;;20.35;19.15;;;;;;;-141.02;100.00;55844.97;5153097;27;20251;-91
2022/07/24 03:00:55;;;;;;;20.58;19.38;;;;;;;-141.02;100.00;55844.97;5150390;27;20200;-88
2022/07/24 03:03:22;;;;;;;20.30;19.10;;;;;;;-141.02;100.00;55844.97;5146002;27;20192;-85
2022/07/24 03:05:50;;;;;;;19.98;18.77;;;;;;;-141.02;100.00;55844.97;5135941;27;20658;-88
2022/07/24 03:08:18;;;;;;;19.88;18.67;;;;;;;-141.02;100.00;55844.97;5134260;27;20192;-90
2022/07/24 03:10:47;;;;;;;20.40;19.20;;;;;;;-141.02;100.00;55844.97;5152716;27;20201;-88
2022/07/24 03:13:14;;;;;;;20.02;18.83;;;;;;;-141.02;100.00;55844.97;5148757;27;20192;-88
2022/07/24 03:15:41;;;;;;;19.85;18.65;;;;;;;-141.02;100.00;55844.97;5137314;27;20261;-88
2022/07/24 03:18:08;;;;;;;19.75;18.55;;;;;;;-141.02;100.00;55844.97;5137377;27;20192;-88
2022/07/24 03:20:35;;;;;;;19.83;18.73;;;;;;;-141.02;100.00;55844.97;5137532;27;20192;-88
2022/07/24 03:23:03;;;;;;;19.95;18.75;;;;;;;-141.02;100.00;55844.97;5137449;27;20231;-85
2022/07/24 03:25:30;;;;;;;20.10;18.90;;;;;;;-141.02;100.00;55844.97;5137938;27;20276;-88
2022/07/24 03:27:57;;;;;;;20.40;19.20;;;;;;;-141.02;100.00;55844.97;5137086;27;20654;-88
2022/07/24 03:30:24;;;;;;;20.23;19.02;;;;;;;-141.02;100.00;55844.97;5137367;27;20279;-88
2022/07/24 03:32:51;;;;;;;19.88;18.67;;;;;;;-141.02;100.00;55844.97;5136866;27;20231;-84
2022/07/24 03:35:18;;;;;;;20.27;19.08;;;;;;;-141.02;100.00;55844.97;5136939;27;20284;-89
2022/07/24 03:37:45;;;;;;;20.27;19.08;;;;;;;-141.02;100.00;55844.97;5137048;27;20299;-89
2022/07/24 03:40:14;;;;;;;20.92;19.67;;;;;;;-141.02;100.00;55844.97;5136705;27;20311;-88
2022/07/24 03:42:42;;;;;;;20.85;19.65;;;;;;;-141.02;100.00;55844.97;5137078;27;20192;-89
2022/07/24 03:45:10;;;;;;;19.83;18.65;;;;;;;-141.02;100.00;55844.97;5136655;27;20663;-88
2022/07/24 03:47:37;;;;;;;20.35;19.15;;;;;;;-141.02;100.00;55844.97;5136934;27;20288;-89
2022/07/24 03:50:05;;;;;;;20.10;18.90;;;;;;;-141.02;100.00;55844.97;5136571;27;20667;-87
2022/07/24 03:52:32;;;;;;;21.33;20.02;;;;;;;-141.02;100.00;55844.97;5137096;27;20279;-88
2022/07/24 03:54:59;;;;;;;20.60;19.40;;;;;;;-141.02;100.00;55844.97;5136843;27;20196;-89
2022/07/24 03:57:27;;;;;;;20.52;19.33;;;;;;;-141.02;100.00;55844.97;5136652;27;20270;-85
2022/07/24 03:59:54;;;;;;;20.85;19.65;;;;;;;-141.02;100.00;55844.97;5136429;27;20188;-88
2022/07/24 04:02:21;;;;;;;22.38;21.08;;;;;;;-141.02;100.00;55844.97;5136463;27;20231;-88
2022/07/24 04:04:48;;;;;;;20.90;19.60;;;;;;;-141.02;100.00;55844.97;5136617;27;20197;-87
2022/07/24 04:07:16;;;;;;;21.50;20.20;;;;;;;-141.02;100.00;55844.97;5136529;27;20719;-88
2022/07/24 04:09:42;;;;;;;22.10;20.80;;;;;;;-141.02;100.00;55844.97;5136912;27;20192;-89
2022/07/24 04:12:10;;;;;;;22.05;20.75;;;;;;;-141.02;100.00;55844.97;5141449;27;20199;-89
2022/07/24 04:14:38;;;;;;;20.55;19.33;;;;;;;-141.02;100.00;55844.97;5136480;27;20192;-88
2022/07/24 04:17:05;;;;;;;20.52;19.23;;;;;;;-141.02;100.00;55844.97;5136694;27;20231;-90
2022/07/24 04:19:32;;;;;;;20.10;18.90;;;;;;;-141.02;100.00;55844.97;5136006;27;20197;-89
2022/07/24 04:21:59;;;;;;;21.23;19.92;;;;;;;-141.02;100.00;55844.97;5136705;27;20204;-87
2022/07/24 04:24:26;;;;;;;21.75;20.38;;;;;;;-141.02;100.00;55844.97;5136713;27;20197;-88
2022/07/24 04:26:54;;;;;;;20.52;19.23;;;;;;;-141.02;100.00;55844.97;5136857;27;20249;-87
2022/07/24 04:29:21;;;;;;;21.13;19.83;;;;;;;-141.02;100.00;55844.97;5139468;27;20628;-89
2022/07/24 04:31:49;;;;;;;21.98;20.63;;;;;;;-141.02;100.00;55844.97;5135952;27;20676;-89
2022/07/24 04:34:16;;;;;;;21.95;20.63;;;;;;;-141.02;100.00;55844.97;5136116;27;20386;-88
2022/07/24 04:36:43;;;;;;;22.42;21.13;;;;;;;-141.02;100.00;55844.97;5135567;27;20788;-89
2022/07/24 04:39:10;;;;;;;22.10;20.80;;;;;;;-141.02;100.00;55844.97;5135409;27;20231;-88
2022/07/24 04:41:37;;;;;;;20.33;19.13;;;;;;;-141.02;100.00;55844.97;5136622;27;20207;-87
2022/07/24 04:44:05;;;;;;;20.15;18.95;;;;;;;-141.02;100.00;55844.97;5136409;27;20201;-89
2022/07/24 04:46:32;;;;;;;22.05;20.75;;;;;;;-141.02;100.00;55844.97;5135434;27;20732;-89
2022/07/24 04:49:00;;;;;;;22.77;21.38;;;;;;;-141.02;100.00;55844.97;5135767;27;20236;-88
2022/07/24 04:51:27;;;;;;;21.48;20.17;;;;;;;-141.02;100.00;55844.97;5135413;27;20197;-89
2022/07/24 04:53:55;;;;;;;21.92;20.60;;;;;;;-141.02;100.00;55844.97;5135701;27;20623;-88
2022/07/24 04:56:23;;;;;;;21.80;20.40;;;;;;;-141.02;100.00;55844.97;5135243;27;20224;-89
2022/07/24 04:58:50;;;;;;;21.63;20.27;;;;;;;-141.02;100.00;55844.97;5135488;27;20192;-87
2022/07/24 05:01:17;;;;;;;21.63;20.33;;;;;;;-141.02;100.00;55844.97;5135552;27;20204;-88
2022/07/24 05:03:44;;;;;;;23.63;22.13;;;;;;;-141.02;100.00;55844.97;5136584;27;20223;-88
2022/07/24 05:06:12;;;;;;;21.70;20.30;;;;;;;-141.02;100.00;55844.97;5137419;27;20231;-88
2022/07/24 05:08:39;;;;;;;20.80;19.50;;;;;;;-141.02;100.00;55844.97;5138218;27;20253;-87
2022/07/24 05:11:06;;;;;;;20.73;19.42;;;;;;;-141.02;100.00;55844.97;5135100;27;20207;-87
2022/07/24 05:13:34;;;;;;;21.08;19.67;;;;;;;-141.02;100.00;55844.97;5135903;27;20717;-87
2022/07/24 05:16:01;;;;;;;21.33;19.92;;;;;;;-141.02;100.00;55844.97;5135462;27;20312;-87
2022/07/24 05:18:28;;;;;;;20.63;19.33;;;;;;;-141.02;100.00;55844.97;5134979;27;20279;-87
2022/07/24 05:20:55;;;;;;;20.70;19.40;;;;;;;-141.02;100.00;55844.97;5135317;27;20277;-87
2022/07/24 05:23:23;;;;;;;21.80;20.40;;;;;;;-141.02;100.00;55844.97;5134811;27;20279;-86
2022/07/24 05:25:50;;;;;;;21.52;20.13;;;;;;;-141.02;100.00;55844.97;5134623;27;20626;-86
2022/07/24 05:28:18;;;;;;;21.63;20.23;;;;;;;-141.02;100.00;55844.97;5135084;27;20717;-87
2022/07/24 05:30:45;;;;;;;21.75;20.35;;;;;;;-141.02;100.00;55844.97;5135412;27;20241;-86
2022/07/24 05:33:13;;;;;;;21.27;19.98;;;;;;;-141.02;100.00;55844.97;5137713;27;20197;-88
2022/07/24 05:35:40;;;;;;;21.05;19.75;;;;;;;-141.02;100.00;55844.97;5133485;27;20662;-86
2022/07/24 05:38:07;;;;;;;21.00;19.70;;;;;;;-141.02;100.00;55844.97;5135640;27;20301;-86
2022/07/24 05:40:35;;;;;;;20.88;19.67;;;;;;;-141.02;100.00;55844.97;5135326;27;20232;-86
2022/07/24 05:43:03;;;;;;;21.73;20.42;;;;;;;-141.02;100.00;55844.97;5135051;27;20203;-86
2022/07/24 05:45:30;;;;;;;20.70;19.40;;;;;;;-141.02;100.00;55844.97;5135282;27;20228;-85
2022/07/24 05:47:57;;;;;;;20.67;19.42;;;;;;;-141.02;100.00;55844.97;5135776;27;20287;-86
2022/07/24 05:50:24;;;;;;;21.20;19.90;;;;;;;-141.02;100.00;55844.97;5136002;27;20196;-86
2022/07/24 05:52:51;;;;;;;21.15;19.75;;;;;;;-141.02;100.00;55844.97;5135409;27;20245;-85
2022/07/24 05:55:18;;;;;;;20.75;19.45;;;;;;;-141.02;100.00;55844.97;5134994;27;20287;-85
2022/07/24 05:57:47;;;;;;;20.67;19.38;;;;;;;-141.02;100.00;55844.97;5134991;27;20315;-86
2022/07/24 06:00:18;;;;;;;20.92;19.60;;;;;;;-141.02;100.00;55844.97;5135411;27;20283;-86
2022/07/24 06:02:46;;;;;;;20.98;19.67;;;;;;;-141.02;100.00;55844.97;5136219;27;20181;-83
2022/07/24 06:05:14;;;;;;;20.48;19.17;;;;;;;-141.02;100.00;55844.97;5135686;27;20550;-83
2022/07/24 06:07:41;;;;;;;20.33;19.02;;;;;;;-141.02;100.00;55844.97;5134657;27;20228;-85
2022/07/24 06:10:09;;;;;;;20.55;19.25;;;;;;;-141.02;100.00;55844.97;5134727;27;20224;-86
2022/07/24 06:12:36;;;;;;;20.92;19.52;;;;;;;-141.02;100.00;55844.97;5134138;27;20279;-86
2022/07/24 06:15:06;;;;;;;20.73;19.42;;;;;;;-141.02;100.00;55844.97;5135367;27;20196;-84
2022/07/24 06:17:33;;;;;;;21.92;20.52;;;;;;;-141.02;100.00;55844.97;5134611;27;20327;-83
2022/07/24 06:20:00;;;;;;;21.00;19.60;;;;;;;-141.02;100.00;55844.97;5135154;27;20279;-84
2022/07/24 06:22:27;;;;;;;20.55;19.15;;;;;;;-141.02;100.00;55844.97;5133872;27;20629;-84
2022/07/24 06:24:54;;;;;;;20.85;19.45;;;;;;;-141.02;100.00;55844.97;5133925;27;20192;-85
2022/07/24 06:27:21;;;;;;;20.23;18.92;;;;;;;-141.02;100.00;55844.97;5133439;27;20245;-85
2022/07/24 06:29:48;;;;;;;20.08;18.77;;;;;;;-141.02;100.00;55844.97;5133623;27;20196;-85
2022/07/24 06:32:17;;;;;;;20.15;18.85;;;;;;;-141.02;100.00;55844.97;5133818;27;20192;-84
2022/07/24 06:34:44;;;;;;;20.13;18.73;;;;;;;-141.02;100.00;55844.97;5133829;27;20196;-86
2022/07/24 06:37:11;;;;;;;19.92;18.63;;;;;;;-141.02;100.00;55844.97;5133530;27;20263;-84
2022/07/24 06:39:38;;;;;;;19.63;18.33;;;;;;;-141.02;100.00;55844.97;5133978;27;20256;-84
2022/07/24 06:42:05;;;;;;;19.50;18.20;;;;;;;-141.02;100.00;55844.97;5134564;27;20261;-85
2022/07/24 06:44:36;;;;;;;20.30;19.00;;;;;;;-141.02;100.00;55844.97;5134506;27;20200;-86
2022/07/24 06:47:03;;;;;;;19.40;18.10;;;;;;;-141.02;100.00;55844.97;5133735;27;20561;-85
2022/07/24 06:49:31;;;;;;;19.40;18.20;;;;;;;-141.02;100.00;55844.97;5134348;27;20217;-84
2022/07/24 06:51:58;;;;;;;19.90;18.60;;;;;;;-141.02;100.00;55844.97;5134476;27;20287;-84
2022/07/24 06:54:26;;;;;;;19.45;18.25;;;;;;;-141.02;100.00;55844.97;5133854;27;20220;-84
2022/07/24 06:56:53;;;;;;;20.27;18.98;;;;;;;-141.02;100.00;55844.97;5134099;27;20230;-85
2022/07/24 06:59:20;;;;;;;20.80;19.45;;;;;;;-141.02;100.00;55844.97;5133148;27;20651;-83
2022/07/24 07:01:47;;;;;;;20.52;19.23;;;;;;;-141.02;100.00;55844.97;5133570;27;20199;-85
2022/07/24 07:04:14;;;;;;;20.13;18.90;;;;;;;-141.02;100.00;55844.97;5134506;27;20279;-85
2022/07/24 07:06:42;;;;;;;21.80;20.40;;;;;;;-141.02;100.00;55844.97;5133630;27;20664;-84
2022/07/24 07:09:09;;;;;;;21.35;20.05;;;;;;;-141.02;100.00;55844.97;5133152;27;20234;-84
2022/07/24 07:11:36;;;;;;;20.65;19.35;;;;;;;-141.02;100.00;55844.97;5133530;28;20290;-84
2022/07/24 07:14:03;;;;;;;20.27;18.98;;;;;;;-141.02;100.00;55844.97;5134312;28;20199;-83
2022/07/24 07:16:30;;;;;;;20.38;19.08;;;;;;;-141.02;100.00;55844.97;5133246;28;20244;-84
2022/07/24 07:18:58;;;;;;;20.52;19.23;;;;;;;-141.02;100.00;55844.97;5133074;28;20741;-86
2022/07/24 07:21:25;;;;;;;20.60;19.30;;;;;;;-141.02;100.00;55844.97;5133176;28;20189;-85
2022/07/24 07:23:53;;;;;;;20.50;19.20;;;;;;;-141.02;100.00;55844.97;5133339;28;20196;-84
2022/07/24 07:26:21;;;;;;;20.58;19.27;;;;;;;-141.02;100.00;55844.97;5132855;28;20195;-84
2022/07/24 07:28:48;;;;;;;20.85;19.48;;;;;;;-141.02;100.00;55844.97;5133498;28;20219;-86
2022/07/24 07:31:15;;;;;;;20.80;19.50;;;;;;;-141.02;100.00;55844.97;5133839;28;20196;-85
2022/07/24 07:33:42;;;;;;;20.77;19.48;;;;;;;-141.02;100.00;55844.97;5133054;28;20196;-83
2022/07/24 07:36:10;;;;;;;20.63;19.33;;;;;;;-141.02;100.00;55844.97;5133411;27;20320;-84
2022/07/24 07:38:38;;;;;;;20.00;18.70;;;;;;;-141.02;100.00;55844.97;5133119;27;20223;-82
2022/07/24 07:41:08;;;;;;;20.45;19.15;;;;;;;-141.02;100.00;55844.97;5132797;27;20232;-83
2022/07/24 07:43:35;;;;;;;20.10;18.83;;;;;;;-141.02;100.00;55844.97;5133553;28;20193;-85
2022/07/24 07:46:02;;;;;;;20.45;19.15;;;;;;;-141.02;100.00;55844.97;5133164;28;20570;-84
2022/07/24 07:48:30;;;;;;;20.70;19.40;;;;;;;-94.73;100.00;107971.00;5133348;27;20196;-84
2022/07/24 07:50:57;;;;;;;20.85;19.55;;;;;;;-141.02;52.30;79926.13;5133175;28;20204;-84
2022/07/24 07:53:24;;;;;;;20.05;18.85;;;;;;;-141.02;100.00;55844.97;5132573;28;20671;-86
2022/07/24 07:55:52;;;;;;;20.65;19.40;;;;;;;-141.02;100.00;55844.97;5133173;28;20339;-81
2022/07/24 07:58:22;;;;;;;21.55;20.25;;;;;;;-141.02;100.00;55844.97;5135141;27;20224;-84
2022/07/24 08:00:49;;;;;;;21.63;20.33;;;;;;;-141.02;100.00;55844.97;5137491;27;20283;-84
2022/07/24 08:03:16;;;;;;;20.80;19.50;;;;;;;-141.02;100.00;55844.97;5136668;27;20196;-85
2022/07/24 08:05:44;;;;;;;21.65;20.25;;;;;;;-141.02;100.00;55844.97;5136717;27;20306;-82
2022/07/24 08:08:11;;;;;;;20.83;19.52;;;;;;;-141.02;100.00;55844.97;5137267;27;20193;-84
2022/07/24 08:10:38;;;;;;;20.35;19.05;;;;;;;-141.02;100.00;55844.97;5136893;27;20239;-84
2022/07/24 08:13:05;;;;;;;21.25;19.95;;;;;;;-141.02;100.00;55844.97;5136756;27;20283;-86
2022/07/24 08:15:34;;;;;;;20.55;19.25;;;;;;;-141.02;100.00;55844.97;5136655;27;20192;-84
2022/07/24 08:18:01;;;;;;;20.77;19.48;;;;;;;-141.02;100.00;55844.97;5137261;27;20256;-85
2022/07/24 08:20:28;;;;;;;21.27;19.98;;;;;;;-141.02;100.00;55844.97;5136325;27;20230;-83
2022/07/24 08:22:56;;;;;;;21.27;19.98;;;;;;;-141.02;100.00;55844.97;5139642;27;20257;-84
2022/07/24 08:25:23;;;;;;;21.83;20.52;;;;;;;-141.02;100.00;55844.97;5136178;27;20239;-83
2022/07/24 08:27:50;;;;;;;21.98;20.67;;;;;;;-141.02;100.00;55844.97;5137255;27;20327;-83
2022/07/24 08:30:17;;;;;;;22.38;21.08;;;;;;;-141.02;100.00;55844.97;5137412;27;20283;-84
2022/07/24 08:32:47;;;;;;;21.65;20.35;;;;;;;-141.02;100.00;55844.97;5135838;27;20203;-84
2022/07/24 08:35:16;;;;;;;21.52;20.23;;;;;;;-141.02;100.00;55844.97;5136122;27;20615;-84
2022/07/24 08:37:43;;;;;;;23.13;21.67;;;;;;;-141.02;100.00;55844.97;5136429;27;20224;-83
2022/07/24 08:40:13;;;;;;;21.92;20.63;;;;;;;-141.02;100.00;55844.97;5136080;27;20706;-85
2022/07/24 08:42:41;;;;;;;22.15;20.85;;;;;;;-141.02;100.00;55844.97;5137225;27;20220;-83
2022/07/24 08:45:09;;;;;;;21.10;19.80;;;;;;;-141.02;100.00;69616.59;5135803;27;20287;-85
2022/07/24 08:47:38;;;;;;;20.88;19.58;;;;;;;-141.02;100.00;55844.97;5135504;27;20196;-83
2022/07/24 08:50:08;;;;;;;21.98;20.67;;;;;;;-141.02;100.00;53048.13;5135505;27;20245;-84
2022/07/24 08:52:36;;;;;;;23.60;22.00;;;;;;;-141.02;100.00;55844.97;5136124;27;20196;-83
2022/07/24 08:55:04;;;;;;;21.05;19.77;;;;;;;-141.02;100.00;55844.97;5136968;27;20725;-83
2022/07/24 08:57:32;;;;;;;21.42;20.13;;;;;;;-141.02;100.00;55844.97;5135853;27;20765;-85
2022/07/24 08:59:59;;;;;;;21.48;20.17;;;;;;;-141.02;100.00;55844.97;5134500;27;20204;-83
2022/07/24 09:02:27;;;;;;;21.58;20.27;;;;;;;-141.02;100.00;55845.25;5136073;27;20280;-85
2022/07/24 09:05:00;;;;;;;21.20;19.90;;;;;;;-141.02;45.52;79078.09;5136251;27;20192;-84
2022/07/24 09:07:31;;;;;;;21.17;19.88;;;;;;;-141.02;100.00;55844.97;5135932;27;20250;-85
2022/07/24 09:10:01;;;;;;;21.02;19.75;;;;;;;-141.02;100.00;55844.97;5135120;27;20184;-82
2022/07/24 09:12:32;;;;;;;21.05;19.75;;;;;;;-141.02;100.00;55844.97;5137346;27;20271;-83
2022/07/24 09:15:00;;;;;;;20.83;19.60;;;;;;;-141.02;100.00;55844.97;5135739;27;20204;-85
2022/07/24 09:17:28;;;;;;;21.67;20.38;;;;;;;-141.02;100.00;55844.97;5135330;27;20227;-83
2022/07/24 09:19:57;;;;;;;20.60;19.35;;;;;;;-141.02;100.00;55844.97;5135695;27;20192;-82
2022/07/24 09:22:34;;;;;;;20.48;19.23;;;;;;;-141.02;45.00;78953.91;5135953;27;20191;-82
2022/07/24 09:25:20;;;;;;;20.25;19.05;;;;;;;-141.02;44.50;79021.81;5135591;27;20191;-84
2022/07/24 09:27:50;;;;;;;21.88;20.48;;;;;;;-141.02;100.00;105905.50;5135876;27;20184;-82
2022/07/24 09:30:29;;;;;;;20.77;19.48;;;;;;;-141.02;100.00;55844.97;5136194;27;20221;-83
2022/07/24 09:33:00;;;;;;;21.48;20.17;;;;;;;-141.02;100.00;55845.25;5135139;27;20274;-85
2022/07/24 09:35:33;;;;;;;21.10;19.80;;;;;;;-94.73;100.00;55844.97;5134689;27;20192;-83
2022/07/24 09:38:03;;;;;;;21.13;19.83;;;;;;;-94.73;45.80;90577.94;5135422;27;20600;-82
2022/07/24 09:40:32;;;;;;;21.42;20.13;;;;;;;-141.02;100.00;55844.97;5135543;27;20233;-84
2022/07/24 09:43:17;;;;;;;21.20;19.95;;;;;;;-141.02;100.00;55844.97;5136402;27;20199;-82
2022/07/24 09:46:00;;;;;;;21.42;20.15;;;;;;;-141.02;100.00;55844.97;5135506;27;20192;-83
2022/07/24 09:48:29;;;;;;;21.65;20.35;;;;;;;-141.02;100.00;55844.97;5135427;27;20619;-83
2022/07/24 09:50:59;;;;;;;22.45;21.05;;;;;;;-141.02;100.00;55844.97;5135046;27;20648;-84
2022/07/24 09:53:29;;;;;;;21.90;20.60;;;;;;;-141.02;100.00;55844.97;5134881;27;20192;-82
2022/07/24 09:56:05;;;;;;;22.80;21.40;;;;;;;-141.02;100.00;55844.97;5135397;27;20188;-85
2022/07/24 09:58:35;;;;;;;21.65;20.35;;;;;;;-141.02;100.00;55844.97;5134347;27;20219;-83
2022/07/24 10:01:03;;;;;;;21.58;20.27;;;;;;;-141.02;100.00;55844.97;5135008;27;20261;-82
2022/07/24 10:03:32;;;;;;;22.92;21.52;;;;;;;-141.02;100.00;55844.97;5135029;27;20187;-85
2022/07/24 10:06:01;;;;;;;22.90;21.30;;;;;;;-141.02;100.00;55844.97;5134464;27;20203;-83
2022/07/24 10:08:30;;;;;;;26.85;24.55;;;;;;;-141.02;100.00;55844.97;5134058;27;20261;-79
2022/07/24 10:10:58;;;;;;;21.33;20.02;;;;;;;-141.02;100.00;55844.97;5134297;27;20199;-81
2022/07/24 10:13:27;;;;;;;22.45;21.05;;;;;;;-141.02;100.00;55844.97;5134763;27;20234;-81
2022/07/24 10:16:09;;;;;;;21.83;20.52;;;;;;;-141.02;100.00;55844.97;5135107;27;20200;-84
2022/07/24 10:18:47;;;;;;;21.73;20.42;;;;;;;-141.02;100.00;55844.97;5134561;27;20212;-81
2022/07/24 10:21:17;;;;;;;21.35;20.05;;;;;;;-141.02;100.00;55844.97;5134369;27;20636;-82
2022/07/24 10:24:15;;;;;;;21.42;20.13;;;;;;;-141.02;100.00;55844.97;5133876;27;20287;-82
2022/07/24 10:26:44;;;;;;;22.65;21.15;;;;;;;-141.02;100.00;55844.97;5107664;27;20200;-83
2022/07/24 10:29:13;;;;;;;20.88;19.58;;;;;;;-141.02;100.00;60801.19;5134792;27;20677;-83
2022/07/24 10:31:42;;;;;;;20.52;19.23;;;;;;;-141.02;100.00;55844.97;5134990;27;20291;-83
2022/07/24 10:34:17;;;;;;;21.27;20.02;;;;;;;-141.02;100.00;55844.97;5135657;27;20245;-84
2022/07/24 10:36:55;;;;;;;21.02;19.73;;;;;;;-141.02;100.00;55844.97;5134370;27;20279;-83
2022/07/24 10:39:37;;;;;;;21.60;20.30;;;;;;;-141.02;100.00;55844.97;5133627;27;20248;-83
2022/07/24 10:42:07;;;;;;;23.27;21.63;;;;;;;-141.02;100.00;55844.97;5133982;27;20193;-82
2022/07/24 10:44:36;;;;;;;24.67;23.17;;;;;;;-141.02;100.00;55844.97;5134841;27;20596;-82
2022/07/24 10:47:08;;;;;;;22.95;21.58;;;;;;;-141.02;100.00;55844.97;5133382;27;20241;-84
2022/07/24 10:49:44;;;;;;;22.35;21.00;;;;;;;-141.02;100.00;55844.97;5133320;27;20223;-81
2022/07/24 10:52:21;;;;;;;21.73;20.42;;;;;;;-141.02;100.00;55844.97;5133543;27;20252;-81
2022/07/24 10:54:49;;;;;;;23.60;22.20;;;;;;;-141.02;100.00;55844.97;5133911;27;20218;-82
2022/07/24 10:57:16;;;;;;;23.08;21.67;;;;;;;-141.02;100.00;55844.97;5133486;27;20287;-83
2022/07/24 10:59:44;;;;;;;24.20;22.70;;;;;;;-141.02;100.00;55844.97;5133263;27;20704;-79